Time;durP1;ratioP1;P1;durP2;ratioP2;P2;SDS_P1;SDS_P2;PMS_P1;PMS_P2;Temp;Humidity;BMP_temperature;BMP_pressure;BME280_temperature;BME280_humidity;BME280_pressure;Samples;Min_cycle;Max_cycle;Signal;HPM_P1;HPM_P2
2023/01/15 00:01:03;;;;;;;1.75;1.02;;;6.20;99.90;;;;;;5032966;28;20048;-62
2023/01/15 00:03:29;;;;;;;2.38;0.70;;;6.70;99.90;;;;;;5032600;28;20068;-62
2023/01/15 00:05:55;;;;;;;6.05;0.80;;;6.20;99.90;;;;;;5032598;28;20037;-62
2023/01/15 00:08:21;;;;;;;5.38;0.77;;;6.20;99.90;;;;;;5032834;28;20125;-62
2023/01/15 00:10:47;;;;;;;6.93;0.68;;;6.50;99.90;;;;;;5032636;28;20044;-62
2023/01/15 00:13:12;;;;;;;0.63;0.40;;;6.20;99.90;;;;;;5032601;28;20041;-62
2023/01/15 00:15:38;;;;;;;1.33;0.35;;;6.10;99.90;;;;;;5032831;28;20120;-62
2023/01/15 00:18:03;;;;;;;0.52;0.30;;;6.20;99.90;;;;;;5032711;28;20472;-62
2023/01/15 00:20:29;;;;;;;6.30;0.70;;;6.10;99.90;;;;;;4998400;28;20040;-62
2023/01/15 00:22:55;;;;;;;3.58;0.95;;;6.20;99.90;;;;;;5015120;28;20203;-62
2023/01/15 00:28:05;;;;;;;3.72;0.65;;;6.20;99.90;;;;;;5032756;28;20037;-62
2023/01/15 00:30:31;;;;;;;4.03;0.50;;;6.20;99.90;;;;;;5015025;28;20052;-62
2023/01/15 00:32:58;;;;;;;5.10;0.88;;;6.20;99.90;;;;;;5032674;28;20045;-62
2023/01/15 00:35:24;;;;;;;4.78;0.43;;;6.20;99.90;;;;;;5032597;28;20042;-62
2023/01/15 00:37:50;;;;;;;1.98;0.55;;;6.20;99.90;;;;;;5032559;28;20038;-62
2023/01/15 00:40:18;;;;;;;1.40;0.55;;;6.20;99.90;;;;;;5033515;28;20033;-62
2023/01/15 00:42:44;;;;;;;1.33;0.63;;;6.20;99.90;;;;;;5036325;28;20038;-62
2023/01/15 00:45:11;;;;;;;3.20;0.70;;;6.10;99.90;;;;;;5018337;28;20038;-62
2023/01/15 00:47:38;;;;;;;7.47;0.77;;;6.20;99.90;;;;;;5018112;28;20042;-62
2023/01/15 00:50:05;;;;;;;1.10;0.50;;;6.20;99.90;;;;;;5035845;28;20091;-62
2023/01/15 00:52:31;;;;;;;2.85;0.85;;;6.20;99.90;;;;;;5036030;28;20454;-62
2023/01/15 00:54:56;;;;;;;3.65;0.43;;;6.20;99.90;;;;;;5036086;28;20120;-62
2023/01/15 00:57:22;;;;;;;4.50;0.68;;;6.20;99.90;;;;;;5035901;28;20041;-62
2023/01/15 00:59:47;;;;;;;6.32;1.20;;;6.20;99.90;;;;;;5018359;28;20038;-62
2023/01/15 01:02:13;;;;;;;4.65;0.90;;;6.20;99.90;;;;;;5035695;28;20449;-63
2023/01/15 01:04:39;;;;;;;1.85;0.30;;;6.10;99.90;;;;;;5035907;28;20041;-62
2023/01/15 01:07:04;;;;;;;5.32;0.65;;;6.10;99.90;;;;;;5035513;28;20045;-62
2023/01/15 01:09:30;;;;;;;2.63;0.85;;;6.20;99.90;;;;;;5035806;28;20057;-61
2023/01/15 01:11:56;;;;;;;6.75;0.95;;;6.20;99.90;;;;;;5017698;28;20068;-62
2023/01/15 01:14:21;;;;;;;1.92;0.55;;;6.20;99.90;;;;;;5035708;28;20042;-62
2023/01/15 01:16:47;;;;;;;1.45;0.98;;;6.20;99.90;;;;;;5035586;28;20415;-62
2023/01/15 01:19:16;;;;;;;6.95;1.33;;;6.20;99.90;;;;;;5035586;28;20171;-62
2023/01/15 01:21:43;;;;;;;4.53;0.45;;;6.20;99.90;;;;;;5017485;28;20491;-62
2023/01/15 01:24:17;;;;;;;3.88;0.80;;;6.60;99.90;;;;;;5035543;28;20041;-62
2023/01/15 01:26:44;;;;;;;4.05;0.60;;;6.20;99.90;;;;;;5035459;28;20048;-62
2023/01/15 01:29:12;;;;;;;1.65;0.52;;;6.20;99.90;;;;;;5017748;28;20041;-62
2023/01/15 01:31:38;;;;;;;0.93;0.55;;;6.20;99.90;;;;;;5017310;28;20038;-62
2023/01/15 01:34:03;;;;;;;7.22;0.80;;;6.20;99.90;;;;;;5017307;28;20476;-62
2023/01/15 01:36:32;;;;;;;3.63;0.65;;;6.20;99.90;;;;;;5035387;28;20087;-62
2023/01/15 01:38:59;;;;;;;3.75;1.42;;;6.20;99.90;;;;;;5035227;28;20095;-62
2023/01/15 01:41:26;;;;;;;3.58;0.70;;;6.20;99.90;;;;;;5035206;28;20029;-62
2023/01/15 01:43:59;;;;;;;2.38;0.60;;;6.20;99.90;;;;;;5034891;28;20045;-62
2023/01/15 01:46:27;;;;;;;8.75;1.13;;;6.20;99.90;;;;;;5035007;28;20045;-62
2023/01/15 01:49:07;;;;;;;2.28;0.93;;;6.20;99.90;;;;;;5035060;28;20120;-62
2023/01/15 01:51:38;;;;;;;4.38;0.80;;;6.20;99.90;;;;;;5034770;28;20034;-62
2023/01/15 01:54:05;;;;;;;4.50;0.30;;;6.20;99.90;;;;;;5034974;28;20069;-62
2023/01/15 01:56:34;;;;;;;2.72;0.52;;;6.20;99.90;;;;;;5034899;28;20045;-62
2023/01/15 01:59:01;;;;;;;8.07;0.80;;;6.20;99.90;;;;;;5016774;28;20088;-62
2023/01/15 02:01:27;;;;;;;10.23;0.98;;;6.20;99.90;;;;;;5034499;28;20037;-62
2023/01/15 02:03:52;;;;;;;1.30;0.45;;;6.20;99.90;;;;;;5034476;28;20107;-62
2023/01/15 02:06:18;;;;;;;5.68;1.00;;;6.20;99.90;;;;;;5016664;28;20386;-62
2023/01/15 02:08:44;;;;;;;0.70;0.40;;;6.20;99.90;;;;;;5034655;28;20116;-62
2023/01/15 02:11:16;;;;;;;0.30;0.30;;;6.20;99.90;;;;;;5034652;28;20048;-62
2023/01/15 02:14:19;;;;;;;3.42;0.85;;;6.20;99.90;;;;;;5016928;28;20042;-62
2023/01/15 02:16:47;;;;;;;3.25;0.70;;;6.20;99.90;;;;;;5034591;28;20048;-62
2023/01/15 02:19:47;;;;;;;2.15;0.70;;;6.20;99.90;;;;;;5034429;28;20469;-62
2023/01/15 02:22:42;;;;;;;2.95;0.40;;;6.20;99.90;;;;;;5016352;28;20396;-62
2023/01/15 02:25:27;;;;;;;4.60;0.40;;;6.10;99.90;;;;;;5016357;28;20068;-62
2023/01/15 02:28:00;;;;;;;9.60;0.75;;;6.10;99.90;;;;;;5016481;28;20132;-62
2023/01/15 02:30:32;;;;;;;9.15;1.27;;;6.10;99.90;;;;;;5034007;28;20056;-62
2023/01/15 02:33:09;;;;;;;1.08;0.50;;;6.10;99.90;;;;;;5034226;28;20041;-62
2023/01/15 02:35:47;;;;;;;1.58;0.50;;;6.20;99.90;;;;;;5016244;28;20037;-62
2023/01/15 02:38:19;;;;;;;4.18;1.08;;;6.10;99.90;;;;;;5034000;28;20045;-62
2023/01/15 02:40:46;;;;;;;9.02;1.58;;;6.10;99.90;;;;;;5034181;28;20044;-62
2023/01/15 02:43:14;;;;;;;10.35;0.77;;;6.10;99.90;;;;;;5034019;28;20049;-62
2023/01/15 02:45:42;;;;;;;6.07;0.80;;;6.10;99.90;;;;;;5033998;28;20401;-62
2023/01/15 02:48:11;;;;;;;4.63;1.13;;;6.10;99.90;;;;;;5033993;28;20045;-64
2023/01/15 02:50:42;;;;;;;6.53;0.75;;;6.10;99.90;;;;;;5033945;28;20041;-62
2023/01/15 02:53:12;;;;;;;6.47;1.23;;;6.00;99.90;;;;;;5033928;28;20048;-62
2023/01/15 02:55:43;;;;;;;2.75;0.88;;;6.00;99.90;;;;;;5033845;28;20049;-62
2023/01/15 02:58:15;;;;;;;2.17;0.75;;;6.00;99.90;;;;;;5033676;28;20048;-62
2023/01/15 03:00:44;;;;;;;4.40;1.20;;;6.10;99.90;;;;;;5033661;28;20404;-62
2023/01/15 03:03:35;;;;;;;2.53;0.80;;;6.10;99.90;;;;;;5032841;28;20132;-62
2023/01/15 03:06:12;;;;;;;7.38;0.85;;;6.10;99.90;;;;;;5015599;28;20068;-62
2023/01/15 03:08:38;;;;;;;1.83;1.00;;;6.20;99.90;;;;;;5015625;28;20049;-62
2023/01/15 03:11:15;;;;;;;4.45;0.47;;;6.20;99.90;;;;;;5033601;28;20044;-62
2023/01/15 03:13:46;;;;;;;1.35;1.00;;;6.10;99.90;;;;;;5015853;28;20060;-62
2023/01/15 03:16:33;;;;;;;12.68;1.00;;;6.10;99.90;;;;;;5033479;28;20167;-62
2023/01/15 03:19:34;;;;;;;7.07;0.75;;;6.10;99.90;;;;;;5033394;28;20034;-62
2023/01/15 03:22:24;;;;;;;2.50;0.88;;;6.10;99.90;;;;;;5009979;28;20460;-62
2023/01/15 03:24:54;;;;;;;5.70;0.57;;;6.10;99.90;;;;;;5033352;28;20117;-62
2023/01/15 03:27:20;;;;;;;5.43;1.63;;;6.10;99.90;;;;;;5033334;28;20112;-62
2023/01/15 03:29:50;;;;;;;1.40;0.70;;;6.10;99.90;;;;;;5033319;28;20107;-62
2023/01/15 03:32:17;;;;;;;2.15;0.60;;;6.10;99.90;;;;;;5033240;28;20045;-62
2023/01/15 03:34:49;;;;;;;7.60;0.77;;;6.00;99.90;;;;;;5015233;28;20053;-62
2023/01/15 03:37:15;;;;;;;2.17;0.93;;;6.00;99.90;;;;;;5033028;28;20076;-62
2023/01/15 03:39:42;;;;;;;1.80;0.60;;;6.00;99.90;;;;;;5015427;28;20041;-62
2023/01/15 03:42:46;;;;;;;5.78;1.25;;;6.00;99.90;;;;;;5033164;28;20463;-62
2023/01/15 03:45:21;;;;;;;8.07;0.70;;;6.10;99.90;;;;;;5014784;28;20125;-62
2023/01/15 03:48:07;;;;;;;4.50;1.05;;;6.00;99.90;;;;;;5033078;28;20048;-62
2023/01/15 03:50:48;;;;;;;1.58;0.50;;;6.00;99.90;;;;;;5033060;28;20052;-62
2023/01/15 03:53:25;;;;;;;2.17;0.77;;;6.10;99.90;;;;;;5032985;28;20120;-62
2023/01/15 03:56:07;;;;;;;4.78;0.70;;;6.00;99.90;;;;;;5015134;28;20111;-62
2023/01/15 03:58:36;;;;;;;2.50;0.57;;;6.00;99.90;;;;;;5032870;28;20124;-62
2023/01/15 04:01:04;;;;;;;0.85;0.40;;;6.00;99.90;;;;;;5014993;28;20046;-62
2023/01/15 04:03:32;;;;;;;5.72;0.88;;;6.00;99.90;;;;;;5032628;28;20107;-62
2023/01/15 04:06:00;;;;;;;4.97;1.08;;;5.90;99.90;;;;;;5032568;28;20041;-62
2023/01/15 04:08:29;;;;;;;4.63;0.55;;;6.30;99.90;;;;;;5032869;28;20091;-62
2023/01/15 04:11:00;;;;;;;4.10;0.95;;;5.90;99.90;;;;;;5032898;28;20049;-62
2023/01/15 04:13:26;;;;;;;2.45;0.82;;;5.90;99.90;;;;;;5032881;28;20037;-62
2023/01/15 04:15:52;;;;;;;6.00;1.30;;;5.90;99.90;;;;;;5036397;28;20103;-63
2023/01/15 04:18:18;;;;;;;1.25;0.65;;;5.90;99.90;;;;;;5036655;28;20158;-62
2023/01/15 04:20:45;;;;;;;4.57;0.47;;;5.90;99.90;;;;;;5019024;28;20042;-62
2023/01/15 04:23:11;;;;;;;2.83;1.05;;;5.90;99.90;;;;;;5036655;28;20565;-62
2023/01/15 04:25:38;;;;;;;3.13;0.45;;;5.90;99.90;;;;;;5036634;28;20037;-62
2023/01/15 04:28:03;;;;;;;3.17;0.70;;;5.80;99.90;;;;;;5036799;28;20451;-62
2023/01/15 04:30:29;;;;;;;4.00;0.85;;;5.80;99.90;;;;;;5036502;28;20160;-62
2023/01/15 04:32:55;;;;;;;2.15;0.82;;;5.80;99.90;;;;;;5036508;28;20044;-62
2023/01/15 04:35:21;;;;;;;2.17;0.52;;;5.80;99.90;;;;;;5018436;28;20419;-62
2023/01/15 04:37:46;;;;;;;2.10;0.73;;;5.80;99.90;;;;;;5018372;28;20116;-62
2023/01/15 04:45:43;;;;;;;7.43;0.77;;;5.80;99.90;;;;;;5036316;28;20046;-62
2023/01/15 04:48:08;;;;;;;2.95;0.82;;;5.80;99.90;;;;;;5018576;28;20037;-62
2023/01/15 04:50:34;;;;;;;1.40;0.50;;;5.90;99.90;;;;;;5036084;28;20539;-62
2023/01/15 04:53:00;;;;;;;4.43;1.13;;;5.80;99.90;;;;;;5036168;28;20045;-62
2023/01/15 04:55:25;;;;;;;2.38;0.63;;;5.80;99.90;;;;;;5036095;28;20108;-62
2023/01/15 04:57:51;;;;;;;1.27;0.68;;;5.70;99.90;;;;;;5018286;28;20043;-62
2023/01/15 05:00:17;;;;;;;5.03;2.03;;;5.80;99.90;;;;;;5036031;28;20485;-63
2023/01/15 05:02:43;;;;;;;2.38;0.98;;;5.80;99.90;;;;;;5035727;28;20050;-62
2023/01/15 05:05:08;;;;;;;4.15;1.85;;;5.70;99.90;;;;;;5035963;28;20107;-62
2023/01/15 05:07:34;;;;;;;7.57;1.73;;;5.70;99.90;;;;;;5035799;28;20033;-62
2023/01/15 05:09:59;;;;;;;3.25;0.50;;;5.70;99.90;;;;;;5035817;28;20040;-62
2023/01/15 05:12:25;;;;;;;1.55;0.55;;;5.70;99.90;;;;;;5035485;28;20124;-61
2023/01/15 05:14:51;;;;;;;0.65;0.43;;;5.60;99.90;;;;;;5035695;28;20084;-62
2023/01/15 05:17:16;;;;;;;2.40;0.57;;;5.60;99.90;;;;;;5035401;28;20046;-62
2023/01/15 05:19:42;;;;;;;4.35;0.80;;;5.60;99.90;;;;;;5035564;28;20434;-62
2023/01/15 05:22:08;;;;;;;2.47;1.65;;;5.60;99.90;;;;;;5035691;28;20091;-62
2023/01/15 05:24:34;;;;;;;3.67;0.75;;;5.60;99.90;;;;;;5035463;28;20116;-62
2023/01/15 05:26:59;;;;;;;4.30;1.02;;;5.60;99.90;;;;;;5034938;28;20511;-62
2023/01/15 05:29:25;;;;;;;5.05;0.73;;;5.60;99.90;;;;;;5035469;28;20036;-62
2023/01/15 05:31:50;;;;;;;3.67;0.98;;;5.50;99.90;;;;;;5035088;28;20072;-62
2023/01/15 05:34:16;;;;;;;1.92;0.57;;;5.60;99.90;;;;;;5017341;28;20095;-62
2023/01/15 05:36:42;;;;;;;6.75;1.00;;;5.50;99.90;;;;;;5035290;28;20113;-62
2023/01/15 05:39:08;;;;;;;0.98;0.35;;;5.50;99.90;;;;;;5035239;28;20045;-62
2023/01/15 05:41:48;;;;;;;1.13;0.60;;;5.50;99.90;;;;;;5035252;28;20076;-62
2023/01/15 05:44:17;;;;;;;3.85;0.93;;;5.50;99.90;;;;;;5017456;28;20038;-62
2023/01/15 05:46:44;;;;;;;1.80;0.68;;;5.50;99.90;;;;;;5035139;28;20377;-62
2023/01/15 05:49:13;;;;;;;3.03;0.40;;;5.50;99.90;;;;;;5035100;28;20034;-63
2023/01/15 05:51:39;;;;;;;3.97;0.90;;;5.50;99.90;;;;;;5034868;28;20048;-64
2023/01/15 05:54:07;;;;;;;4.88;1.27;;;5.50;99.90;;;;;;5017249;28;20037;-62
2023/01/15 05:56:37;;;;;;;2.15;0.63;;;5.50;99.90;;;;;;5034738;28;20042;-62
2023/01/15 05:59:03;;;;;;;1.75;0.73;;;5.40;99.90;;;;;;5034483;28;20073;-62
2023/01/15 06:01:28;;;;;;;2.05;0.95;;;5.40;99.90;;;;;;5034833;28;20045;-62
2023/01/15 06:04:00;;;;;;;1.67;0.40;;;5.40;99.90;;;;;;5034528;28;20060;-62
2023/01/15 06:06:26;;;;;;;1.55;0.63;;;5.30;99.90;;;;;;5034795;28;20048;-62
2023/01/15 06:08:52;;;;;;;1.77;0.50;;;5.30;99.90;;;;;;5034713;28;20037;-62
2023/01/15 06:11:18;;;;;;;3.55;0.50;;;5.30;99.90;;;;;;5034396;28;20041;-62
2023/01/15 06:13:43;;;;;;;6.93;1.30;;;5.90;99.90;;;;;;5034669;28;20052;-62
2023/01/15 06:16:10;;;;;;;2.42;0.50;;;5.30;99.90;;;;;;5034574;28;20443;-61
2023/01/15 06:18:36;;;;;;;7.45;0.70;;;5.30;99.90;;;;;;5034494;28;20124;-61
2023/01/15 06:21:04;;;;;;;4.53;0.95;;;5.30;99.90;;;;;;5034428;28;20044;-61
2023/01/15 06:23:31;;;;;;;4.88;0.55;;;5.30;99.90;;;;;;5016420;28;20069;-61
2023/01/15 06:26:00;;;;;;;7.05;0.88;;;5.20;99.90;;;;;;5034019;28;20037;-61
2023/01/15 06:28:26;;;;;;;2.38;0.77;;;5.30;99.90;;;;;;5034008;28;20064;-62
2023/01/15 06:30:52;;;;;;;2.53;0.50;;;5.20;99.90;;;;;;5034284;28;20041;-61
2023/01/15 06:33:17;;;;;;;6.20;0.50;;;5.20;99.90;;;;;;5033885;28;20397;-61
2023/01/15 06:35:43;;;;;;;3.40;0.52;;;5.20;99.90;;;;;;5034183;28;20116;-62
2023/01/15 06:38:08;;;;;;;0.40;0.25;;;5.20;99.90;;;;;;5033113;28;20037;-62
2023/01/15 06:40:35;;;;;;;3.88;0.63;;;5.20;99.90;;;;;;5016364;28;20042;-62
2023/01/15 06:48:29;;;;;;;10.82;1.45;;;5.30;99.90;;;;;;5033929;28;20041;-61
2023/01/15 06:50:55;;;;;;;1.30;0.50;;;5.30;99.90;;;;;;5033922;28;20037;-61
2023/01/15 06:53:21;;;;;;;1.60;0.50;;;5.30;99.90;;;;;;5033763;28;20370;-62
2023/01/15 06:55:47;;;;;;;2.05;0.65;;;5.30;99.90;;;;;;5016158;28;20528;-62
2023/01/15 06:58:13;;;;;;;0.95;0.60;;;5.30;99.90;;;;;;5015986;28;20037;-61
2023/01/15 07:00:42;;;;;;;1.35;0.70;;;5.30;99.90;;;;;;5033594;28;20034;-61
2023/01/15 07:03:07;;;;;;;5.45;1.02;;;5.30;99.90;;;;;;5033573;28;20100;-62
2023/01/15 07:05:33;;;;;;;0.88;0.60;;;5.30;99.90;;;;;;5033417;28;20468;-61
2023/01/15 07:07:59;;;;;;;1.40;0.55;;;5.30;99.90;;;;;;5033606;28;20037;-62
2023/01/15 07:10:24;;;;;;;4.85;0.65;;;5.30;99.90;;;;;;5033613;28;20042;-61
2023/01/15 07:12:50;;;;;;;2.90;0.52;;;5.30;99.90;;;;;;5033291;28;20056;-61
2023/01/15 07:15:16;;;;;;;1.27;0.50;;;5.20;99.90;;;;;;5015632;28;20048;-61
2023/01/15 07:17:41;;;;;;;0.90;0.50;;;5.20;99.90;;;;;;5033421;28;20037;-62
2023/01/15 07:20:07;;;;;;;4.10;0.45;;;5.90;99.90;;;;;;5015584;28;20038;-63
2023/01/15 07:22:33;;;;;;;3.13;0.73;;;5.10;99.90;;;;;;5015430;28;20523;-61
2023/01/15 07:24:58;;;;;;;3.88;0.68;;;5.10;99.90;;;;;;5015449;28;20112;-61
2023/01/15 07:27:24;;;;;;;1.05;0.50;;;5.00;99.90;;;;;;5033322;28;20399;-61
2023/01/15 07:29:50;;;;;;;13.20;0.95;;;5.00;99.90;;;;;;5033347;28;20080;-61
2023/01/15 07:32:16;;;;;;;1.35;0.57;;;5.00;99.90;;;;;;5032911;28;20099;-61
2023/01/15 07:34:42;;;;;;;4.35;0.50;;;4.90;99.90;;;;;;5033180;28;20049;-61
2023/01/15 07:37:08;;;;;;;7.60;1.02;;;4.90;99.90;;;;;;5033124;28;20068;-61
2023/01/15 07:39:33;;;;;;;3.22;0.95;;;5.00;99.90;;;;;;5015316;28;20041;-61
2023/01/15 07:50:19;;;;;;;6.50;0.52;;;5.00;99.90;;;;;;5032445;28;20045;-63
2023/01/15 07:52:45;;;;;;;0.65;0.40;;;4.50;99.90;;;;;;5032976;28;20041;-61
2023/01/15 07:55:12;;;;;;;3.03;0.85;;;5.00;99.90;;;;;;5032760;28;20041;-61
2023/01/15 07:57:38;;;;;;;0.20;0.20;;;5.00;99.90;;;;;;5032890;28;20120;-62
2023/01/15 08:00:06;;;;;;;1.50;0.60;;;5.10;99.90;;;;;;5015146;28;20043;-62
2023/01/15 08:02:32;;;;;;;2.70;0.50;;;;;;;;;;5032391;28;20088;-62
2023/01/15 08:04:58;;;;;;;1.45;0.55;;;4.90;99.90;;;;;;5032896;28;20045;-62
2023/01/15 08:07:23;;;;;;;0.40;0.38;;;4.90;99.90;;;;;;5032842;28;20045;-62
2023/01/15 08:09:49;;;;;;;11.23;1.63;;;4.90;99.90;;;;;;5032871;28;20449;-62
2023/01/15 08:15:15;;;;;;;5.55;0.55;;;4.90;99.90;;;;;;5032851;28;20045;-62
2023/01/15 08:17:43;;;;;;;1.75;0.57;;;4.90;99.90;;;;;;5032435;28;20060;-63
2023/01/15 08:20:29;;;;;;;5.97;0.73;;;5.00;99.90;;;;;;5015118;28;20516;-63
2023/01/15 08:22:55;;;;;;;1.33;0.47;;;4.90;99.90;;;;;;5032184;28;20046;-62
2023/01/15 08:25:23;;;;;;;2.22;0.95;;;5.00;99.90;;;;;;5032727;28;20071;-61
2023/01/15 08:27:49;;;;;;;1.58;0.40;;;5.30;99.90;;;;;;5032762;28;20047;-62
2023/01/15 08:30:18;;;;;;;1.50;0.47;;;5.00;99.90;;;;;;5032762;28;20042;-62
2023/01/15 08:32:44;;;;;;;6.10;0.45;;;5.80;99.90;;;;;;5032630;28;20077;-64
2023/01/15 08:35:11;;;;;;;3.17;0.93;;;5.10;99.90;;;;;;5032680;28;20048;-62
2023/01/15 08:37:37;;;;;;;5.65;1.08;;;5.00;99.90;;;;;;5014857;28;20087;-62
2023/01/15 08:40:03;;;;;;;1.05;0.40;;;5.20;99.90;;;;;;5032569;28;20037;-62
2023/01/15 08:42:29;;;;;;;1.23;0.65;;;5.20;99.90;;;;;;5014641;28;20120;-62
2023/01/15 08:44:55;;;;;;;4.50;1.08;;;5.30;99.90;;;;;;5032547;28;20112;-62
2023/01/15 08:47:20;;;;;;;3.38;1.40;;;5.40;99.90;;;;;;5032581;28;20389;-62
2023/01/15 08:49:47;;;;;;;0.28;0.25;;;5.50;99.90;;;;;;5032498;28;20171;-61
2023/01/15 08:52:13;;;;;;;1.45;0.95;;;5.60;99.90;;;;;;5032575;28;20045;-63
2023/01/15 08:54:39;;;;;;;0.30;0.25;;;5.70;99.90;;;;;;5014927;28;20407;-62
2023/01/15 08:57:04;;;;;;;5.05;0.75;;;5.70;99.90;;;;;;5014834;28;20038;-62
2023/01/15 08:59:30;;;;;;;3.35;0.73;;;5.80;99.90;;;;;;5032429;28;20045;-62
2023/01/15 09:01:56;;;;;;;3.53;0.70;;;5.80;99.90;;;;;;5034299;28;20029;-62
2023/01/15 09:04:21;;;;;;;4.18;0.55;;;5.70;99.90;;;;;;5035488;28;20045;-62
2023/01/15 09:06:48;;;;;;;2.45;0.50;;;5.70;99.90;;;;;;5035644;28;20072;-62
2023/01/15 09:09:14;;;;;;;3.40;0.45;;;5.70;99.90;;;;;;5035434;28;20042;-63
2023/01/15 09:11:40;;;;;;;2.08;0.75;;;5.50;99.90;;;;;;5017141;28;20068;-63
2023/01/15 09:14:10;;;;;;;7.25;0.55;;;5.30;99.90;;;;;;5034620;28;20076;-65
2023/01/15 09:16:37;;;;;;;2.63;0.63;;;5.10;99.90;;;;;;5034889;28;20508;-63
2023/01/15 09:19:04;;;;;;;3.05;1.17;;;5.00;99.90;;;;;;5034758;28;20103;-64
2023/01/15 09:21:30;;;;;;;5.25;1.20;;;5.20;99.90;;;;;;5034639;28;20037;-63
2023/01/15 09:23:55;;;;;;;1.83;0.43;;;5.00;99.90;;;;;;5034479;28;20527;-64
2023/01/15 09:26:32;;;;;;;1.25;0.68;;;4.90;99.90;;;;;;5034585;28;20052;-64
2023/01/15 09:28:58;;;;;;;3.90;0.60;;;4.90;99.90;;;;;;5034456;28;20488;-63
2023/01/15 09:31:24;;;;;;;0.32;0.30;;;4.80;99.90;;;;;;5034513;28;20037;-64
2023/01/15 09:33:50;;;;;;;0.80;0.30;;;4.70;99.90;;;;;;5034478;28;20420;-63
2023/01/15 09:36:18;;;;;;;0.75;0.52;;;4.50;99.90;;;;;;5034451;28;20366;-64
2023/01/15 09:38:44;;;;;;;2.15;0.45;;;4.80;99.90;;;;;;5034412;28;20037;-64
2023/01/15 09:44:37;;;;;;;0.10;0.10;;;4.90;99.90;;;;;;5034316;28;20477;-64
2023/01/15 09:47:14;;;;;;;0.30;0.30;;;4.90;99.90;;;;;;4972900;28;20078;-64
2023/01/15 09:50:08;;;;;;;3.03;0.40;;;4.70;99.90;;;;;;5025635;28;20045;-62
2023/01/15 09:52:49;;;;;;;0.45;0.40;;;4.70;99.90;;;;;;5033347;28;20060;-64
2023/01/15 09:55:32;;;;;;;0.47;0.32;;;4.70;99.90;;;;;;5034097;28;20041;-64
2023/01/15 09:58:03;;;;;;;2.45;0.73;;;4.70;99.90;;;;;;5015959;28;20052;-63
2023/01/15 10:00:36;;;;;;;0.10;0.10;;;4.80;99.90;;;;;;5033730;28;20033;-63
2023/01/15 10:03:20;;;;;;;2.38;0.45;;;4.90;99.90;;;;;;5033595;28;20142;-63
2023/01/15 10:05:55;;;;;;;4.57;1.38;;;4.80;99.90;;;;;;5033734;28;20479;-63
2023/01/15 10:08:25;;;;;;;0.10;0.10;;;4.90;99.90;;;;;;5033615;28;20041;-64
2023/01/15 10:10:57;;;;;;;0.60;0.50;;;5.00;99.90;;;;;;5033881;28;20088;-63
2023/01/15 10:13:47;;;;;;;2.25;0.85;;;5.10;99.90;;;;;;5033635;28;20071;-63
2023/01/15 10:16:19;;;;;;;2.25;0.20;;;5.10;99.90;;;;;;5033735;28;20037;-64
2023/01/15 10:18:45;;;;;;;4.40;0.45;;;5.20;99.90;;;;;;5015561;28;20041;-64
2023/01/15 10:21:35;;;;;;;0.50;0.50;;;5.30;99.90;;;;;;5033393;28;20061;-64
2023/01/15 10:24:17;;;;;;;0.43;0.20;;;5.10;99.90;;;;;;5033598;28;20045;-64
2023/01/15 10:26:56;;;;;;;1.75;0.43;;;5.10;99.90;;;;;;5033277;28;20111;-63
2023/01/15 10:29:41;;;;;;;0.30;0.25;;;4.90;99.90;;;;;;5033385;28;20033;-63
2023/01/15 10:32:33;;;;;;;3.15;0.55;;;4.80;99.90;;;;;;5015694;28;20128;-63
2023/01/15 10:35:11;;;;;;;11.68;0.50;;;4.70;99.90;;;;;;5033420;28;20045;-64
2023/01/15 10:37:49;;;;;;;1.30;0.90;;;4.70;99.90;;;;;;5033247;28;20060;-63
2023/01/15 10:40:32;;;;;;;1.15;1.08;;;4.90;99.90;;;;;;5032923;28;20049;-64
2023/01/15 10:43:01;;;;;;;2.17;0.47;;;4.90;99.90;;;;;;5033251;28;20067;-63
2023/01/15 10:45:32;;;;;;;2.50;0.68;;;4.80;99.90;;;;;;5033106;28;20044;-64
2023/01/15 10:48:10;;;;;;;0.52;0.40;;;4.90;99.90;;;;;;5015129;28;20405;-63
2023/01/15 10:50:37;;;;;;;1.75;1.30;;;5.10;99.90;;;;;;5015022;28;20120;-64
2023/01/15 10:53:26;;;;;;;0.68;0.30;;;5.10;99.90;;;;;;5032810;28;20424;-63
2023/01/15 10:55:57;;;;;;;2.17;0.38;;;5.00;99.90;;;;;;5032998;28;20061;-64
2023/01/15 10:58:42;;;;;;;;;;;5.00;99.90;;;;;;5015263;28;20455;-64
2023/01/15 11:01:15;;;;;;;6.47;0.43;;;4.90;99.90;;;;;;5014921;28;19928;-64
2023/01/15 11:03:42;;;;;;;11.32;1.13;;;4.70;99.90;;;;;;5032533;28;20058;-63
2023/01/15 11:06:14;;;;;;;11.43;1.20;;;;;;;;;;5032802;28;20041;-64
2023/01/15 11:08:42;;;;;;;2.83;0.40;;;4.50;99.90;;;;;;5014985;28;20056;-64
2023/01/15 11:19:40;;;;;;;2.25;1.40;;;4.60;99.90;;;;;;5032312;28;20075;-64
2023/01/15 11:22:09;;;;;;;2.17;0.47;;;4.70;99.90;;;;;;5032216;28;20041;-65
2023/01/15 11:24:47;;;;;;;1.55;0.95;;;4.70;99.90;;;;;;5032063;28;20385;-65
2023/01/15 11:27:19;;;;;;;7.63;1.83;;;4.80;99.90;;;;;;5014729;28;20041;-65
2023/01/15 11:29:49;;;;;;;0.30;0.20;;;5.00;99.90;;;;;;5014475;28;20124;-65
2023/01/15 11:32:36;;;;;;;2.38;0.30;;;5.00;99.90;;;;;;5032036;28;20401;-65
2023/01/15 11:35:14;;;;;;;2.10;0.63;;;5.30;99.90;;;;;;5014780;28;20481;-64
2023/01/15 11:37:39;;;;;;;1.85;0.77;;;5.40;99.90;;;;;;5032024;28;20092;-64
2023/01/15 11:40:15;;;;;;;0.60;0.60;;;5.50;99.90;;;;;;5032335;28;20042;-65
2023/01/15 11:51:12;;;;;;;2.65;0.63;;;6.40;99.90;;;;;;5031864;28;20041;-64
2023/01/15 11:53:45;;;;;;;2.47;0.80;;;6.60;99.90;;;;;;5031878;28;20029;-64
2023/01/15 11:56:19;;;;;;;1.17;1.08;;;6.80;99.90;;;;;;5032076;28;20408;-64
2023/01/15 11:58:48;;;;;;;6.53;0.70;;;6.90;99.90;;;;;;5031902;28;20052;-64
2023/01/15 12:01:36;;;;;;;6.32;1.40;;;6.90;99.90;;;;;;5032007;28;20037;-64
2023/01/15 12:04:21;;;;;;;2.30;0.88;;;6.80;99.90;;;;;;5031618;28;20525;-64
2023/01/15 12:06:47;;;;;;;7.43;0.52;;;6.80;99.90;;;;;;5032009;28;20033;-64
2023/01/15 12:09:35;;;;;;;16.73;1.00;;;7.20;99.90;;;;;;5031891;28;20120;-64
2023/01/15 12:12:26;;;;;;;2.05;0.82;;;7.20;99.90;;;;;;5014044;28;20092;-64
2023/01/15 12:15:13;;;;;;;2.83;0.43;;;7.10;99.90;;;;;;5032008;28;20037;-64
2023/01/15 12:18:06;;;;;;;3.00;0.50;;;7.00;99.90;;;;;;5031686;28;20450;-63
2023/01/15 12:20:56;;;;;;;1.88;0.82;;;7.00;99.90;;;;;;5013926;28;20049;-64
2023/01/15 12:24:06;;;;;;;3.10;0.88;;;6.90;99.90;;;;;;5031833;28;20101;-63
2023/01/15 12:26:51;;;;;;;2.47;0.45;;;6.80;99.90;;;;;;4998622;28;20045;-64
2023/01/15 12:29:23;;;;;;;2.67;0.90;;;6.70;99.90;;;;;;5031860;28;20046;-63
2023/01/15 12:31:54;;;;;;;4.20;0.73;;;6.70;99.90;;;;;;5031829;28;20106;-63
2023/01/15 12:34:50;;;;;;;0.38;0.30;;;7.20;99.90;;;;;;5014090;28;20050;-63
2023/01/15 12:37:25;;;;;;;5.68;0.60;;;6.70;99.90;;;;;;5033937;28;20049;-64
2023/01/15 12:40:14;;;;;;;10.00;1.48;;;6.70;99.90;;;;;;5035596;28;20082;-63
2023/01/15 12:45:37;;;;;;;0.82;0.47;;;6.90;99.90;;;;;;5035504;28;20046;-64
2023/01/15 12:48:29;;;;;;;1.30;0.88;;;7.00;99.90;;;;;;5035092;28;20045;-64
2023/01/15 12:50:59;;;;;;;0.85;0.50;;;7.00;99.90;;;;;;5035040;28;20046;-63
2023/01/15 12:53:40;;;;;;;5.00;0.73;;;7.00;99.90;;;;;;5035121;28;20065;-64
2023/01/15 12:56:41;;;;;;;6.05;1.00;;;7.10;99.90;;;;;;5035266;28;20503;-63
2023/01/15 12:59:23;;;;;;;2.03;0.73;;;7.10;99.90;;;;;;4973644;28;20141;-64
2023/01/15 13:02:16;;;;;;;1.83;0.60;;;7.10;99.90;;;;;;5029206;28;20128;-63
2023/01/15 13:04:52;;;;;;;1.98;0.30;;;7.00;99.90;;;;;;5034982;28;20081;-63
2023/01/15 13:07:41;;;;;;;3.53;1.17;;;7.00;99.90;;;;;;5016876;28;20042;-63
2023/01/15 13:10:26;;;;;;;17.27;1.92;;;7.00;99.90;;;;;;5034999;28;20029;-63
2023/01/15 13:12:54;;;;;;;5.88;1.25;;;7.20;99.90;;;;;;5034613;28;20045;-63
2023/01/15 13:15:25;;;;;;;5.10;0.80;;;7.20;99.90;;;;;;5034826;28;20099;-63
2023/01/15 13:18:15;;;;;;;0.95;0.60;;;7.20;99.90;;;;;;5016834;28;20053;-63
2023/01/15 13:20:41;;;;;;;4.35;1.02;;;7.20;99.90;;;;;;5016735;28;20052;-63
2023/01/15 13:23:17;;;;;;;2.65;0.70;;;7.20;99.90;;;;;;5034693;28;20408;-63
2023/01/15 13:26:06;;;;;;;1.75;1.15;;;7.20;99.90;;;;;;5034703;28;20088;-63
2023/01/15 13:28:58;;;;;;;0.30;0.22;;;7.10;99.90;;;;;;5026089;28;20054;-63
2023/01/15 13:31:53;;;;;;;4.05;1.67;;;7.00;99.90;;;;;;5034625;28;20073;-64
2023/01/15 13:34:27;;;;;;;4.65;0.88;;;6.90;99.90;;;;;;5021366;28;20054;-64
2023/01/15 13:37:03;;;;;;;5.57;1.00;;;6.80;99.90;;;;;;5034045;28;20045;-64
2023/01/15 13:39:40;;;;;;;2.28;0.98;;;6.80;99.90;;;;;;5034091;28;20085;-64
2023/01/15 13:42:31;;;;;;;6.57;1.25;;;6.70;99.90;;;;;;5034310;28;20037;-64
2023/01/15 13:45:04;;;;;;;5.03;1.38;;;6.60;99.90;;;;;;5034351;28;20467;-63
2023/01/15 13:47:32;;;;;;;1.08;0.30;;;6.50;99.90;;;;;;5015814;28;20037;-63
2023/01/15 13:50:03;;;;;;;1.40;0.43;;;6.00;99.90;;;;;;5016417;28;20049;-64
2023/01/15 13:52:34;;;;;;;0.40;0.28;;;5.40;99.90;;;;;;5033679;28;20038;-64
2023/01/15 13:55:07;;;;;;;;;;;5.00;99.90;;;;;;5034449;28;20038;-64
2023/01/15 13:57:39;;;;;;;1.90;0.32;;;4.90;99.90;;;;;;5033918;28;19929;-64
2023/01/15 14:00:26;;;;;;;0.35;0.35;;;4.80;99.90;;;;;;5033979;28;20067;-64
2023/01/15 14:02:54;;;;;;;2.53;0.80;;;4.70;99.90;;;;;;5022854;28;20053;-64
2023/01/15 14:05:32;;;;;;;0.80;0.30;;;4.70;99.90;;;;;;5015774;28;20400;-63
2023/01/15 14:08:00;;;;;;;9.38;0.98;;;4.70;99.90;;;;;;5033890;28;20128;-63